Thalman, Georgia
Current Conditions -  °F | °C
As of 4:35 PM on Friday 28 Nov 2014 (Local Time) from KBQK Reporting Station
Clear Clear  
Wind Chill: 50°   Ceiling: Unl
Heat Index: 50°   Visibility: 10mi
Dew Point: 32°   Wind: 6mph
Humidity: 50%   Direction: 70°ENE
Pressure: 30.33"   Gusts: NA
Location:  31.2665°N, 81.6074°W
Report Text: KBQK 282135Z AUTO 07005KT 10SM CLR 10/00 A3033 RMK AO1
Loading
Personal Weather Stations






























Interactive Weather Map New forecast layout! Learn more

10-Day Weather Forecast

Advertisements
Track Severe Weather on mobile